sensor_id;sensor_type;location;lat;lon;timestamp;P1;durP1;ratioP1;P2;durP2;ratioP2
9128;SDS011;4599;50.906;6.786;2022-07-29T00:00:28;9.73;;;1.50;;
9128;SDS011;4599;50.906;6.786;2022-07-29T00:04:30;6.10;;;1.50;;
9128;SDS011;4599;50.906;6.786;2022-07-29T00:08:31;3.67;;;1.40;;
9128;SDS011;4599;50.906;6.786;2022-07-29T00:12:33;5.03;;;1.70;;
9128;SDS011;4599;50.906;6.786;2022-07-29T00:16:36;3.13;;;1.40;;
9128;SDS011;4599;50.906;6.786;2022-07-29T00:20:38;4.23;;;1.30;;
9128;SDS011;4599;50.906;6.786;2022-07-29T00:24:39;3.43;;;1.47;;
9128;SDS011;4599;50.906;6.786;2022-07-29T00:28:41;7.17;;;1.40;;
9128;SDS011;4599;50.906;6.786;2022-07-29T00:32:44;5.80;;;1.73;;
9128;SDS011;4599;50.906;6.786;2022-07-29T00:36:46;5.03;;;1.60;;
9128;SDS011;4599;50.906;6.786;2022-07-29T00:40:47;5.23;;;1.57;;
9128;SDS011;4599;50.906;6.786;2022-07-29T00:44:49;1.70;;;1.20;;
9128;SDS011;4599;50.906;6.786;2022-07-29T00:48:52;5.27;;;1.70;;
9128;SDS011;4599;50.906;6.786;2022-07-29T00:52:54;3.43;;;1.50;;
9128;SDS011;4599;50.906;6.786;2022-07-29T00:56:56;3.23;;;1.30;;
9128;SDS011;4599;50.906;6.786;2022-07-29T01:00:59;5.83;;;1.53;;
9128;SDS011;4599;50.906;6.786;2022-07-29T01:05:03;8.80;;;1.60;;
9128;SDS011;4599;50.906;6.786;2022-07-29T01:09:06;4.70;;;1.50;;
9128;SDS011;4599;50.906;6.786;2022-07-29T01:13:10;4.97;;;1.57;;
9128;SDS011;4599;50.906;6.786;2022-07-29T01:17:16;3.93;;;1.50;;
9128;SDS011;4599;50.906;6.786;2022-07-29T01:21:35;5.03;;;1.50;;
9128;SDS011;4599;50.906;6.786;2022-07-29T01:30:33;5.33;;;1.70;;
9128;SDS011;4599;50.906;6.786;2022-07-29T01:34:40;5.13;;;1.80;;
9128;SDS011;4599;50.906;6.786;2022-07-29T01:38:51;8.13;;;1.60;;
9128;SDS011;4599;50.906;6.786;2022-07-29T01:42:59;4.23;;;1.50;;
9128;SDS011;4599;50.906;6.786;2022-07-29T01:47:08;6.40;;;1.70;;
9128;SDS011;4599;50.906;6.786;2022-07-29T01:51:14;5.03;;;1.47;;
9128;SDS011;4599;50.906;6.786;2022-07-29T01:55:20;8.47;;;1.63;;
9128;SDS011;4599;50.906;6.786;2022-07-29T01:59:26;4.77;;;1.70;;
9128;SDS011;4599;50.906;6.786;2022-07-29T02:03:32;4.10;;;1.83;;
9128;SDS011;4599;50.906;6.786;2022-07-29T02:07:36;5.10;;;1.60;;
9128;SDS011;4599;50.906;6.786;2022-07-29T02:11:40;4.00;;;1.60;;
9128;SDS011;4599;50.906;6.786;2022-07-29T02:15:49;4.93;;;2.00;;
9128;SDS011;4599;50.906;6.786;2022-07-29T02:19:56;7.70;;;1.90;;
9128;SDS011;4599;50.906;6.786;2022-07-29T02:24:00;3.63;;;1.70;;
9128;SDS011;4599;50.906;6.786;2022-07-29T02:28:04;3.50;;;1.43;;
9128;SDS011;4599;50.906;6.786;2022-07-29T02:32:07;3.80;;;1.50;;
9128;SDS011;4599;50.906;6.786;2022-07-29T02:36:13;6.90;;;1.47;;
9128;SDS011;4599;50.906;6.786;2022-07-29T02:40:15;5.27;;;1.50;;
9128;SDS011;4599;50.906;6.786;2022-07-29T02:44:18;4.23;;;1.70;;
9128;SDS011;4599;50.906;6.786;2022-07-29T02:48:22;6.23;;;1.77;;
9128;SDS011;4599;50.906;6.786;2022-07-29T02:52:31;4.70;;;1.80;;
9128;SDS011;4599;50.906;6.786;2022-07-29T02:56:39;5.77;;;1.50;;
9128;SDS011;4599;50.906;6.786;2022-07-29T03:00:44;5.80;;;1.83;;
9128;SDS011;4599;50.906;6.786;2022-07-29T03:04:48;3.07;;;1.50;;
9128;SDS011;4599;50.906;6.786;2022-07-29T03:08:54;7.47;;;1.90;;
9128;SDS011;4599;50.906;6.786;2022-07-29T03:12:56;2.03;;;1.20;;
9128;SDS011;4599;50.906;6.786;2022-07-29T03:16:59;6.77;;;2.20;;
9128;SDS011;4599;50.906;6.786;2022-07-29T03:21:02;4.40;;;1.90;;
9128;SDS011;4599;50.906;6.786;2022-07-29T03:25:08;6.60;;;1.80;;
9128;SDS011;4599;50.906;6.786;2022-07-29T03:29:11;6.73;;;1.90;;
9128;SDS011;4599;50.906;6.786;2022-07-29T03:33:14;8.13;;;2.23;;
9128;SDS011;4599;50.906;6.786;2022-07-29T03:37:16;4.43;;;1.90;;
9128;SDS011;4599;50.906;6.786;2022-07-29T03:41:19;4.47;;;1.80;;
9128;SDS011;4599;50.906;6.786;2022-07-29T03:45:23;4.83;;;1.87;;
9128;SDS011;4599;50.906;6.786;2022-07-29T03:49:27;5.53;;;1.80;;
9128;SDS011;4599;50.906;6.786;2022-07-29T03:53:30;5.43;;;1.90;;
9128;SDS011;4599;50.906;6.786;2022-07-29T03:57:34;7.93;;;1.80;;
9128;SDS011;4599;50.906;6.786;2022-07-29T04:01:37;6.03;;;1.80;;
9128;SDS011;4599;50.906;6.786;2022-07-29T04:05:40;6.33;;;2.13;;
9128;SDS011;4599;50.906;6.786;2022-07-29T04:09:41;5.73;;;1.60;;
9128;SDS011;4599;50.906;6.786;2022-07-29T04:13:45;7.47;;;1.80;;
9128;SDS011;4599;50.906;6.786;2022-07-29T04:17:46;3.53;;;1.73;;
9128;SDS011;4599;50.906;6.786;2022-07-29T04:21:49;3.60;;;1.60;;
9128;SDS011;4599;50.906;6.786;2022-07-29T04:25:52;4.50;;;1.80;;
9128;SDS011;4599;50.906;6.786;2022-07-29T04:29:55;5.70;;;1.70;;
9128;SDS011;4599;50.906;6.786;2022-07-29T04:33:57;5.10;;;1.83;;
9128;SDS011;4599;50.906;6.786;2022-07-29T04:37:59;6.83;;;1.90;;
9128;SDS011;4599;50.906;6.786;2022-07-29T04:42:01;4.77;;;1.80;;
9128;SDS011;4599;50.906;6.786;2022-07-29T04:46:05;6.77;;;1.50;;
9128;SDS011;4599;50.906;6.786;2022-07-29T04:50:08;5.23;;;1.83;;
9128;SDS011;4599;50.906;6.786;2022-07-29T04:54:10;4.00;;;1.97;;
9128;SDS011;4599;50.906;6.786;2022-07-29T04:58:12;5.17;;;1.80;;
9128;SDS011;4599;50.906;6.786;2022-07-29T05:02:15;4.60;;;1.90;;
9128;SDS011;4599;50.906;6.786;2022-07-29T05:06:17;6.43;;;1.90;;
9128;SDS011;4599;50.906;6.786;2022-07-29T05:10:19;9.27;;;2.07;;
9128;SDS011;4599;50.906;6.786;2022-07-29T05:14:21;9.83;;;1.87;;
9128;SDS011;4599;50.906;6.786;2022-07-29T05:18:24;4.07;;;1.87;;
9128;SDS011;4599;50.906;6.786;2022-07-29T05:22:26;4.83;;;2.30;;
9128;SDS011;4599;50.906;6.786;2022-07-29T05:26:28;7.30;;;1.90;;
9128;SDS011;4599;50.906;6.786;2022-07-29T05:30:29;6.70;;;2.23;;
9128;SDS011;4599;50.906;6.786;2022-07-29T05:34:33;4.10;;;2.30;;
9128;SDS011;4599;50.906;6.786;2022-07-29T05:38:35;5.77;;;2.20;;
9128;SDS011;4599;50.906;6.786;2022-07-29T05:42:37;5.27;;;2.33;;
9128;SDS011;4599;50.906;6.786;2022-07-29T05:46:38;6.90;;;2.30;;
9128;SDS011;4599;50.906;6.786;2022-07-29T05:50:42;6.23;;;2.40;;
9128;SDS011;4599;50.906;6.786;2022-07-29T05:54:44;4.27;;;2.10;;
9128;SDS011;4599;50.906;6.786;2022-07-29T05:58:46;5.33;;;2.00;;
9128;SDS011;4599;50.906;6.786;2022-07-29T06:02:47;9.53;;;2.30;;
9128;SDS011;4599;50.906;6.786;2022-07-29T06:06:50;9.53;;;2.20;;
9128;SDS011;4599;50.906;6.786;2022-07-29T06:10:52;10.60;;;2.50;;
9128;SDS011;4599;50.906;6.786;2022-07-29T06:14:53;7.63;;;2.23;;
9128;SDS011;4599;50.906;6.786;2022-07-29T06:18:55;5.47;;;2.00;;
9128;SDS011;4599;50.906;6.786;2022-07-29T06:22:58;8.13;;;2.20;;
9128;SDS011;4599;50.906;6.786;2022-07-29T06:27:01;8.13;;;2.07;;
9128;SDS011;4599;50.906;6.786;2022-07-29T06:31:02;8.23;;;2.43;;
9128;SDS011;4599;50.906;6.786;2022-07-29T06:35:05;6.57;;;3.60;;
9128;SDS011;4599;50.906;6.786;2022-07-29T06:39:28;4.50;;;2.30;;
9128;SDS011;4599;50.906;6.786;2022-07-29T06:43:31;8.03;;;2.20;;
9128;SDS011;4599;50.906;6.786;2022-07-29T06:47:33;6.90;;;2.20;;
9128;SDS011;4599;50.906;6.786;2022-07-29T06:51:35;9.20;;;2.47;;
9128;SDS011;4599;50.906;6.786;2022-07-29T06:55:38;8.03;;;2.43;;
9128;SDS011;4599;50.906;6.786;2022-07-29T06:59:40;8.73;;;2.50;;
9128;SDS011;4599;50.906;6.786;2022-07-29T07:03:41;8.07;;;2.37;;
9128;SDS011;4599;50.906;6.786;2022-07-29T07:07:43;9.53;;;2.60;;
9128;SDS011;4599;50.906;6.786;2022-07-29T07:11:46;4.93;;;2.27;;
9128;SDS011;4599;50.906;6.786;2022-07-29T07:15:50;12.07;;;3.00;;
9128;SDS011;4599;50.906;6.786;2022-07-29T07:19:52;7.33;;;2.40;;
9128;SDS011;4599;50.906;6.786;2022-07-29T07:23:54;6.57;;;2.37;;
9128;SDS011;4599;50.906;6.786;2022-07-29T07:27:57;4.83;;;2.13;;
9128;SDS011;4599;50.906;6.786;2022-07-29T07:31:59;6.10;;;2.10;;
9128;SDS011;4599;50.906;6.786;2022-07-29T07:36:01;6.60;;;2.33;;
9128;SDS011;4599;50.906;6.786;2022-07-29T07:40:04;8.60;;;2.50;;
9128;SDS011;4599;50.906;6.786;2022-07-29T07:44:08;5.77;;;2.23;;
9128;SDS011;4599;50.906;6.786;2022-07-29T07:48:16;8.60;;;2.63;;
9128;SDS011;4599;50.906;6.786;2022-07-29T07:52:19;4.77;;;2.40;;
9128;SDS011;4599;50.906;6.786;2022-07-29T07:56:22;6.23;;;2.27;;
9128;SDS011;4599;50.906;6.786;2022-07-29T08:00:25;8.60;;;2.20;;
9128;SDS011;4599;50.906;6.786;2022-07-29T08:04:26;7.63;;;2.70;;
9128;SDS011;4599;50.906;6.786;2022-07-29T08:08:29;7.73;;;2.47;;
9128;SDS011;4599;50.906;6.786;2022-07-29T08:12:32;4.57;;;2.60;;
9128;SDS011;4599;50.906;6.786;2022-07-29T08:16:35;6.60;;;2.50;;
9128;SDS011;4599;50.906;6.786;2022-07-29T08:20:37;7.03;;;2.57;;
9128;SDS011;4599;50.906;6.786;2022-07-29T08:24:39;5.00;;;2.43;;
9128;SDS011;4599;50.906;6.786;2022-07-29T08:28:42;5.33;;;2.60;;
9128;SDS011;4599;50.906;6.786;2022-07-29T08:32:48;5.93;;;2.50;;
9128;SDS011;4599;50.906;6.786;2022-07-29T08:36:55;8.03;;;2.53;;
9128;SDS011;4599;50.906;6.786;2022-07-29T08:40:57;5.07;;;2.40;;
9128;SDS011;4599;50.906;6.786;2022-07-29T08:44:59;7.57;;;2.50;;
9128;SDS011;4599;50.906;6.786;2022-07-29T08:49:02;4.77;;;2.50;;
9128;SDS011;4599;50.906;6.786;2022-07-29T08:53:04;7.30;;;2.70;;
9128;SDS011;4599;50.906;6.786;2022-07-29T08:57:08;9.73;;;2.70;;
9128;SDS011;4599;50.906;6.786;2022-07-29T09:01:13;5.33;;;2.80;;
9128;SDS011;4599;50.906;6.786;2022-07-29T09:05:21;11.30;;;3.23;;
9128;SDS011;4599;50.906;6.786;2022-07-29T09:09:25;6.47;;;3.30;;
9128;SDS011;4599;50.906;6.786;2022-07-29T09:13:28;12.27;;;3.70;;
9128;SDS011;4599;50.906;6.786;2022-07-29T09:17:42;10.60;;;3.27;;
9128;SDS011;4599;50.906;6.786;2022-07-29T09:21:47;9.23;;;3.10;;
9128;SDS011;4599;50.906;6.786;2022-07-29T09:25:48;7.43;;;2.43;;
9128;SDS011;4599;50.906;6.786;2022-07-29T09:29:57;4.77;;;2.37;;
9128;SDS011;4599;50.906;6.786;2022-07-29T09:34:00;8.77;;;2.67;;
9128;SDS011;4599;50.906;6.786;2022-07-29T09:38:10;7.77;;;2.03;;
9128;SDS011;4599;50.906;6.786;2022-07-29T09:42:12;10.17;;;2.20;;
9128;SDS011;4599;50.906;6.786;2022-07-29T09:46:16;5.87;;;1.97;;
9128;SDS011;4599;50.906;6.786;2022-07-29T09:50:18;6.30;;;2.03;;
9128;SDS011;4599;50.906;6.786;2022-07-29T09:54:23;10.23;;;2.17;;
9128;SDS011;4599;50.906;6.786;2022-07-29T09:58:25;7.03;;;2.27;;
9128;SDS011;4599;50.906;6.786;2022-07-29T10:02:28;4.07;;;1.80;;
9128;SDS011;4599;50.906;6.786;2022-07-29T10:06:30;8.40;;;2.20;;
9128;SDS011;4599;50.906;6.786;2022-07-29T10:10:35;4.00;;;2.17;;
9128;SDS011;4599;50.906;6.786;2022-07-29T10:14:37;5.43;;;2.00;;
9128;SDS011;4599;50.906;6.786;2022-07-29T10:18:39;7.33;;;2.30;;
9128;SDS011;4599;50.906;6.786;2022-07-29T10:22:41;4.73;;;2.07;;
9128;SDS011;4599;50.906;6.786;2022-07-29T10:26:55;4.53;;;2.43;;
9128;SDS011;4599;50.906;6.786;2022-07-29T10:30:59;6.30;;;2.10;;
9128;SDS011;4599;50.906;6.786;2022-07-29T10:35:08;5.97;;;2.30;;
9128;SDS011;4599;50.906;6.786;2022-07-29T10:39:24;4.60;;;2.05;;
9128;SDS011;4599;50.906;6.786;2022-07-29T10:43:46;8.85;;;2.35;;
9128;SDS011;4599;50.906;6.786;2022-07-29T10:48:01;4.70;;;2.25;;
9128;SDS011;4599;50.906;6.786;2022-07-29T10:52:08;7.32;;;2.45;;
9128;SDS011;4599;50.906;6.786;2022-07-29T10:56:22;7.15;;;2.45;;
9128;SDS011;4599;50.906;6.786;2022-07-29T11:00:27;6.70;;;2.25;;
9128;SDS011;4599;50.906;6.786;2022-07-29T11:09:15;6.45;;;2.05;;
9128;SDS011;4599;50.906;6.786;2022-07-29T11:18:09;6.35;;;2.10;;
9128;SDS011;4599;50.906;6.786;2022-07-29T11:22:31;7.68;;;2.17;;
9128;SDS011;4599;50.906;6.786;2022-07-29T11:26:33;4.60;;;2.40;;
9128;SDS011;4599;50.906;6.786;2022-07-29T11:30:48;9.60;;;2.60;;
9128;SDS011;4599;50.906;6.786;2022-07-29T11:39:27;3.47;;;2.15;;
9128;SDS011;4599;50.906;6.786;2022-07-29T11:43:45;3.35;;;2.22;;
9128;SDS011;4599;50.906;6.786;2022-07-29T11:47:51;5.70;;;2.22;;
9128;SDS011;4599;50.906;6.786;2022-07-29T11:51:56;5.15;;;2.15;;
9128;SDS011;4599;50.906;6.786;2022-07-29T11:55:59;5.63;;;2.00;;
9128;SDS011;4599;50.906;6.786;2022-07-29T12:00:04;5.13;;;2.13;;
9128;SDS011;4599;50.906;6.786;2022-07-29T12:04:12;8.65;;;2.50;;
9128;SDS011;4599;50.906;6.786;2022-07-29T12:08:16;9.10;;;2.30;;
9128;SDS011;4599;50.906;6.786;2022-07-29T12:12:20;8.23;;;2.20;;
9128;SDS011;4599;50.906;6.786;2022-07-29T12:16:33;6.90;;;1.80;;
9128;SDS011;4599;50.906;6.786;2022-07-29T12:20:36;7.70;;;1.90;;
9128;SDS011;4599;50.906;6.786;2022-07-29T12:24:48;7.35;;;2.10;;
9128;SDS011;4599;50.906;6.786;2022-07-29T12:28:56;6.57;;;1.90;;
9128;SDS011;4599;50.906;6.786;2022-07-29T12:33:09;3.80;;;2.20;;
9128;SDS011;4599;50.906;6.786;2022-07-29T12:37:12;8.00;;;1.90;;
9128;SDS011;4599;50.906;6.786;2022-07-29T12:41:15;6.47;;;2.10;;
9128;SDS011;4599;50.906;6.786;2022-07-29T12:45:17;5.03;;;2.00;;
9128;SDS011;4599;50.906;6.786;2022-07-29T12:49:21;8.85;;;2.00;;
9128;SDS011;4599;50.906;6.786;2022-07-29T12:53:23;4.78;;;1.95;;
9128;SDS011;4599;50.906;6.786;2022-07-29T12:57:26;5.25;;;2.15;;
9128;SDS011;4599;50.906;6.786;2022-07-29T13:01:35;7.82;;;2.10;;
9128;SDS011;4599;50.906;6.786;2022-07-29T13:05:41;6.38;;;2.03;;
9128;SDS011;4599;50.906;6.786;2022-07-29T13:09:49;16.48;;;10.38;;
9128;SDS011;4599;50.906;6.786;2022-07-29T13:13:52;12.70;;;6.22;;
9128;SDS011;4599;50.906;6.786;2022-07-29T13:22:30;8.20;;;3.20;;
9128;SDS011;4599;50.906;6.786;2022-07-29T13:26:31;5.05;;;2.60;;
9128;SDS011;4599;50.906;6.786;2022-07-29T13:30:34;6.97;;;2.60;;
9128;SDS011;4599;50.906;6.786;2022-07-29T13:34:44;5.68;;;2.60;;
9128;SDS011;4599;50.906;6.786;2022-07-29T13:38:46;5.88;;;3.35;;
9128;SDS011;4599;50.906;6.786;2022-07-29T13:42:48;7.22;;;2.90;;
9128;SDS011;4599;50.906;6.786;2022-07-29T13:46:51;6.80;;;3.22;;
9128;SDS011;4599;50.906;6.786;2022-07-29T13:50:52;9.18;;;3.33;;
9128;SDS011;4599;50.906;6.786;2022-07-29T13:54:54;5.40;;;3.00;;
9128;SDS011;4599;50.906;6.786;2022-07-29T13:58:56;8.30;;;3.42;;
9128;SDS011;4599;50.906;6.786;2022-07-29T14:02:59;4.57;;;2.70;;
9128;SDS011;4599;50.906;6.786;2022-07-29T14:07:01;5.47;;;3.47;;
9128;SDS011;4599;50.906;6.786;2022-07-29T14:11:06;9.75;;;4.50;;
9128;SDS011;4599;50.906;6.786;2022-07-29T14:15:08;11.68;;;4.53;;
9128;SDS011;4599;50.906;6.786;2022-07-29T14:19:11;5.93;;;3.85;;
9128;SDS011;4599;50.906;6.786;2022-07-29T14:23:13;7.18;;;4.07;;
9128;SDS011;4599;50.906;6.786;2022-07-29T14:27:16;8.23;;;4.35;;
9128;SDS011;4599;50.906;6.786;2022-07-29T14:31:18;6.05;;;3.55;;
9128;SDS011;4599;50.906;6.786;2022-07-29T14:35:22;6.45;;;4.13;;
9128;SDS011;4599;50.906;6.786;2022-07-29T14:39:23;7.78;;;4.82;;
9128;SDS011;4599;50.906;6.786;2022-07-29T14:43:32;10.35;;;3.70;;
9128;SDS011;4599;50.906;6.786;2022-07-29T14:47:34;9.48;;;4.10;;
9128;SDS011;4599;50.906;6.786;2022-07-29T14:51:37;9.30;;;4.30;;
9128;SDS011;4599;50.906;6.786;2022-07-29T14:55:40;7.55;;;3.33;;
9128;SDS011;4599;50.906;6.786;2022-07-29T14:59:42;5.97;;;3.45;;
9128;SDS011;4599;50.906;6.786;2022-07-29T15:03:45;7.53;;;3.65;;
9128;SDS011;4599;50.906;6.786;2022-07-29T15:07:48;5.35;;;2.50;;
9128;SDS011;4599;50.906;6.786;2022-07-29T15:11:50;7.38;;;2.75;;
9128;SDS011;4599;50.906;6.786;2022-07-29T15:15:51;4.82;;;2.22;;
9128;SDS011;4599;50.906;6.786;2022-07-29T15:19:59;3.90;;;2.08;;
9128;SDS011;4599;50.906;6.786;2022-07-29T15:24:03;9.70;;;2.50;;
9128;SDS011;4599;50.906;6.786;2022-07-29T15:28:05;7.60;;;2.70;;
9128;SDS011;4599;50.906;6.786;2022-07-29T15:32:06;6.70;;;1.73;;
9128;SDS011;4599;50.906;6.786;2022-07-29T15:36:09;6.10;;;2.22;;
9128;SDS011;4599;50.906;6.786;2022-07-29T15:40:12;6.10;;;2.00;;
9128;SDS011;4599;50.906;6.786;2022-07-29T15:44:14;6.43;;;2.10;;
9128;SDS011;4599;50.906;6.786;2022-07-29T15:48:15;5.10;;;1.65;;
9128;SDS011;4599;50.906;6.786;2022-07-29T15:52:18;4.40;;;1.90;;
9128;SDS011;4599;50.906;6.786;2022-07-29T15:56:28;5.78;;;1.77;;
9128;SDS011;4599;50.906;6.786;2022-07-29T16:00:29;2.33;;;1.70;;
9128;SDS011;4599;50.906;6.786;2022-07-29T16:04:31;4.43;;;1.97;;
9128;SDS011;4599;50.906;6.786;2022-07-29T16:08:33;4.67;;;1.80;;
9128;SDS011;4599;50.906;6.786;2022-07-29T16:12:37;5.47;;;2.00;;
9128;SDS011;4599;50.906;6.786;2022-07-29T16:16:38;4.53;;;1.77;;
9128;SDS011;4599;50.906;6.786;2022-07-29T16:20:40;7.20;;;1.80;;
9128;SDS011;4599;50.906;6.786;2022-07-29T16:24:42;3.00;;;2.00;;
9128;SDS011;4599;50.906;6.786;2022-07-29T16:28:46;4.63;;;1.73;;
9128;SDS011;4599;50.906;6.786;2022-07-29T16:32:49;3.13;;;1.70;;
9128;SDS011;4599;50.906;6.786;2022-07-29T16:36:50;6.87;;;1.80;;
9128;SDS011;4599;50.906;6.786;2022-07-29T16:40:52;4.63;;;1.70;;
9128;SDS011;4599;50.906;6.786;2022-07-29T16:44:55;7.60;;;1.87;;
9128;SDS011;4599;50.906;6.786;2022-07-29T16:48:57;2.80;;;1.90;;
9128;SDS011;4599;50.906;6.786;2022-07-29T16:52:59;5.07;;;2.03;;
9128;SDS011;4599;50.906;6.786;2022-07-29T16:57:00;6.43;;;2.20;;
9128;SDS011;4599;50.906;6.786;2022-07-29T17:01:04;9.63;;;2.10;;
9128;SDS011;4599;50.906;6.786;2022-07-29T17:05:06;5.47;;;2.40;;
9128;SDS011;4599;50.906;6.786;2022-07-29T17:09:09;4.47;;;2.23;;
9128;SDS011;4599;50.906;6.786;2022-07-29T17:13:11;4.60;;;2.13;;
9128;SDS011;4599;50.906;6.786;2022-07-29T17:17:14;4.27;;;2.30;;
9128;SDS011;4599;50.906;6.786;2022-07-29T17:21:21;4.47;;;2.20;;
9128;SDS011;4599;50.906;6.786;2022-07-29T17:25:23;6.80;;;2.10;;
9128;SDS011;4599;50.906;6.786;2022-07-29T17:29:25;6.17;;;2.40;;
9128;SDS011;4599;50.906;6.786;2022-07-29T17:33:28;5.63;;;1.90;;
9128;SDS011;4599;50.906;6.786;2022-07-29T17:37:30;5.43;;;2.10;;
9128;SDS011;4599;50.906;6.786;2022-07-29T17:41:32;2.37;;;1.70;;
9128;SDS011;4599;50.906;6.786;2022-07-29T17:45:33;4.93;;;2.17;;
9128;SDS011;4599;50.906;6.786;2022-07-29T17:49:52;7.40;;;1.90;;
9128;SDS011;4599;50.906;6.786;2022-07-29T17:53:53;3.13;;;2.00;;
9128;SDS011;4599;50.906;6.786;2022-07-29T17:57:55;6.57;;;2.10;;
9128;SDS011;4599;50.906;6.786;2022-07-29T18:02:00;4.80;;;2.20;;
9128;SDS011;4599;50.906;6.786;2022-07-29T18:06:03;3.10;;;1.90;;
9128;SDS011;4599;50.906;6.786;2022-07-29T18:10:05;1.80;;;1.70;;
9128;SDS011;4599;50.906;6.786;2022-07-29T18:14:07;5.10;;;2.00;;
9128;SDS011;4599;50.906;6.786;2022-07-29T18:18:09;5.23;;;2.40;;
9128;SDS011;4599;50.906;6.786;2022-07-29T18:22:12;4.53;;;2.17;;
9128;SDS011;4599;50.906;6.786;2022-07-29T18:26:14;6.00;;;2.33;;
9128;SDS011;4599;50.906;6.786;2022-07-29T18:30:15;4.43;;;2.80;;
9128;SDS011;4599;50.906;6.786;2022-07-29T18:34:17;6.40;;;1.93;;
9128;SDS011;4599;50.906;6.786;2022-07-29T18:38:19;5.73;;;2.37;;
9128;SDS011;4599;50.906;6.786;2022-07-29T18:42:21;6.47;;;2.30;;
9128;SDS011;4599;50.906;6.786;2022-07-29T18:46:23;5.33;;;2.20;;
9128;SDS011;4599;50.906;6.786;2022-07-29T18:50:25;7.23;;;1.90;;
9128;SDS011;4599;50.906;6.786;2022-07-29T18:54:31;2.60;;;1.87;;
9128;SDS011;4599;50.906;6.786;2022-07-29T18:58:32;3.30;;;2.00;;
9128;SDS011;4599;50.906;6.786;2022-07-29T19:02:34;3.50;;;2.10;;
9128;SDS011;4599;50.906;6.786;2022-07-29T19:06:36;3.97;;;2.03;;
9128;SDS011;4599;50.906;6.786;2022-07-29T19:10:39;3.50;;;1.83;;
9128;SDS011;4599;50.906;6.786;2022-07-29T19:14:40;3.83;;;2.10;;
9128;SDS011;4599;50.906;6.786;2022-07-29T19:18:42;4.50;;;2.00;;
9128;SDS011;4599;50.906;6.786;2022-07-29T19:22:43;3.73;;;2.10;;
9128;SDS011;4599;50.906;6.786;2022-07-29T19:26:46;2.77;;;1.90;;
9128;SDS011;4599;50.906;6.786;2022-07-29T19:30:48;8.20;;;2.27;;
9128;SDS011;4599;50.906;6.786;2022-07-29T19:34:50;5.33;;;2.10;;
9128;SDS011;4599;50.906;6.786;2022-07-29T19:38:51;6.47;;;2.23;;
9128;SDS011;4599;50.906;6.786;2022-07-29T19:42:54;2.80;;;1.97;;
9128;SDS011;4599;50.906;6.786;2022-07-29T19:46:56;4.37;;;2.10;;
9128;SDS011;4599;50.906;6.786;2022-07-29T19:50:58;8.13;;;2.20;;
9128;SDS011;4599;50.906;6.786;2022-07-29T19:54:59;6.70;;;1.73;;
9128;SDS011;4599;50.906;6.786;2022-07-29T19:59:09;5.93;;;2.07;;
9128;SDS011;4599;50.906;6.786;2022-07-29T20:03:10;3.73;;;2.23;;
9128;SDS011;4599;50.906;6.786;2022-07-29T20:07:12;4.43;;;1.97;;
9128;SDS011;4599;50.906;6.786;2022-07-29T20:11:14;3.83;;;1.87;;
9128;SDS011;4599;50.906;6.786;2022-07-29T20:15:17;6.53;;;1.90;;
9128;SDS011;4599;50.906;6.786;2022-07-29T20:19:19;2.93;;;1.87;;
9128;SDS011;4599;50.906;6.786;2022-07-29T20:23:21;5.77;;;2.20;;
9128;SDS011;4599;50.906;6.786;2022-07-29T20:27:24;3.27;;;2.00;;
9128;SDS011;4599;50.906;6.786;2022-07-29T20:31:27;4.67;;;1.97;;
9128;SDS011;4599;50.906;6.786;2022-07-29T20:35:29;3.63;;;1.77;;
9128;SDS011;4599;50.906;6.786;2022-07-29T20:39:30;3.43;;;1.60;;
9128;SDS011;4599;50.906;6.786;2022-07-29T20:43:32;3.30;;;1.97;;
9128;SDS011;4599;50.906;6.786;2022-07-29T20:47:40;4.23;;;2.20;;
9128;SDS011;4599;50.906;6.786;2022-07-29T20:51:42;2.33;;;1.80;;
9128;SDS011;4599;50.906;6.786;2022-07-29T20:55:44;2.67;;;1.70;;
9128;SDS011;4599;50.906;6.786;2022-07-29T20:59:46;3.47;;;1.97;;
9128;SDS011;4599;50.906;6.786;2022-07-29T21:03:48;4.23;;;1.90;;
9128;SDS011;4599;50.906;6.786;2022-07-29T21:07:50;2.57;;;1.70;;
9128;SDS011;4599;50.906;6.786;2022-07-29T21:11:59;2.07;;;1.70;;
9128;SDS011;4599;50.906;6.786;2022-07-29T21:16:01;4.33;;;2.00;;
9128;SDS011;4599;50.906;6.786;2022-07-29T21:20:11;5.53;;;1.90;;
9128;SDS011;4599;50.906;6.786;2022-07-29T21:24:13;3.83;;;2.07;;
9128;SDS011;4599;50.906;6.786;2022-07-29T21:28:15;3.47;;;1.90;;
9128;SDS011;4599;50.906;6.786;2022-07-29T21:32:16;8.77;;;2.30;;
9128;SDS011;4599;50.906;6.786;2022-07-29T21:36:31;3.13;;;1.90;;
9128;SDS011;4599;50.906;6.786;2022-07-29T21:40:49;2.00;;;1.77;;
9128;SDS011;4599;50.906;6.786;2022-07-29T21:44:52;3.87;;;2.00;;
9128;SDS011;4599;50.906;6.786;2022-07-29T21:48:54;4.83;;;2.00;;
9128;SDS011;4599;50.906;6.786;2022-07-29T21:52:57;4.07;;;1.90;;
9128;SDS011;4599;50.906;6.786;2022-07-29T21:57:00;2.13;;;1.77;;
9128;SDS011;4599;50.906;6.786;2022-07-29T22:01:02;4.10;;;2.07;;
9128;SDS011;4599;50.906;6.786;2022-07-29T22:05:04;5.83;;;2.10;;
9128;SDS011;4599;50.906;6.786;2022-07-29T22:09:07;8.67;;;2.33;;
9128;SDS011;4599;50.906;6.786;2022-07-29T22:13:10;12.67;;;2.60;;
9128;SDS011;4599;50.906;6.786;2022-07-29T22:17:12;7.33;;;2.40;;
9128;SDS011;4599;50.906;6.786;2022-07-29T22:21:14;9.63;;;2.80;;
9128;SDS011;4599;50.906;6.786;2022-07-29T22:25:17;4.97;;;2.70;;
9128;SDS011;4599;50.906;6.786;2022-07-29T22:29:18;5.00;;;2.63;;
9128;SDS011;4599;50.906;6.786;2022-07-29T22:33:20;6.60;;;2.33;;
9128;SDS011;4599;50.906;6.786;2022-07-29T22:37:22;5.10;;;2.57;;
9128;SDS011;4599;50.906;6.786;2022-07-29T22:41:24;7.43;;;2.60;;
9128;SDS011;4599;50.906;6.786;2022-07-29T22:45:26;5.23;;;2.67;;
9128;SDS011;4599;50.906;6.786;2022-07-29T22:49:28;7.17;;;2.50;;
9128;SDS011;4599;50.906;6.786;2022-07-29T22:53:30;4.63;;;2.50;;
9128;SDS011;4599;50.906;6.786;2022-07-29T22:57:33;4.17;;;2.60;;
9128;SDS011;4599;50.906;6.786;2022-07-29T23:01:35;7.80;;;2.80;;
9128;SDS011;4599;50.906;6.786;2022-07-29T23:05:38;7.33;;;2.60;;
9128;SDS011;4599;50.906;6.786;2022-07-29T23:09:39;4.23;;;2.80;;
9128;SDS011;4599;50.906;6.786;2022-07-29T23:13:42;7.03;;;2.90;;
9128;SDS011;4599;50.906;6.786;2022-07-29T23:17:44;4.67;;;3.00;;
9128;SDS011;4599;50.906;6.786;2022-07-29T23:21:46;8.70;;;3.47;;
9128;SDS011;4599;50.906;6.786;2022-07-29T23:25:48;7.80;;;2.87;;
9128;SDS011;4599;50.906;6.786;2022-07-29T23:29:51;6.40;;;3.30;;
9128;SDS011;4599;50.906;6.786;2022-07-29T23:33:53;5.77;;;3.13;;
9128;SDS011;4599;50.906;6.786;2022-07-29T23:37:54;7.00;;;2.93;;
9128;SDS011;4599;50.906;6.786;2022-07-29T23:41:56;4.93;;;3.07;;
9128;SDS011;4599;50.906;6.786;2022-07-29T23:45:59;7.63;;;3.27;;
9128;SDS011;4599;50.906;6.786;2022-07-29T23:50:01;7.43;;;3.33;;
9128;SDS011;4599;50.906;6.786;2022-07-29T23:54:03;10.13;;;3.83;;
9128;SDS011;4599;50.906;6.786;2022-07-29T23:58:05;19.13;;;4.37;;
